sensor_id;sensor_type;location;lat;lon;timestamp;temperature;humidity
32322;DHT22;61553;48.994;8.940;2024-02-04T00:00:27;8.20;99.90
32322;DHT22;61553;48.994;8.940;2024-02-04T00:02:52;8.10;99.90
32322;DHT22;61553;48.994;8.940;2024-02-04T00:05:18;8.10;99.90
32322;DHT22;61553;48.994;8.940;2024-02-04T00:07:44;8.10;99.90
32322;DHT22;61553;48.994;8.940;2024-02-04T00:10:10;8.10;99.90
32322;DHT22;61553;48.994;8.940;2024-02-04T00:12:36;8.20;99.90
32322;DHT22;61553;48.994;8.940;2024-02-04T00:15:03;8.20;99.90
32322;DHT22;61553;48.994;8.940;2024-02-04T00:17:30;8.10;99.90
32322;DHT22;61553;48.994;8.940;2024-02-04T00:19:58;8.20;99.90
32322;DHT22;61553;48.994;8.940;2024-02-04T00:22:24;8.20;99.90
32322;DHT22;61553;48.994;8.940;2024-02-04T00:24:50;8.20;99.90
32322;DHT22;61553;48.994;8.940;2024-02-04T00:27:15;8.20;99.90
32322;DHT22;61553;48.994;8.940;2024-02-04T00:29:41;8.30;99.90
32322;DHT22;61553;48.994;8.940;2024-02-04T00:32:07;8.20;99.90
32322;DHT22;61553;48.994;8.940;2024-02-04T00:34:32;8.30;99.90
32322;DHT22;61553;48.994;8.940;2024-02-04T00:36:58;8.30;99.90
32322;DHT22;61553;48.994;8.940;2024-02-04T00:39:24;8.30;99.90
32322;DHT22;61553;48.994;8.940;2024-02-04T00:41:50;8.30;99.90
32322;DHT22;61553;48.994;8.940;2024-02-04T00:44:15;8.30;99.90
32322;DHT22;61553;48.994;8.940;2024-02-04T00:46:41;8.20;99.90
32322;DHT22;61553;48.994;8.940;2024-02-04T00:49:06;8.30;99.90
32322;DHT22;61553;48.994;8.940;2024-02-04T00:51:32;8.30;99.90
32322;DHT22;61553;48.994;8.940;2024-02-04T00:53:58;8.30;99.90
32322;DHT22;61553;48.994;8.940;2024-02-04T00:56:24;8.20;99.90
32322;DHT22;61553;48.994;8.940;2024-02-04T00:58:49;8.20;99.90
32322;DHT22;61553;48.994;8.940;2024-02-04T01:01:15;8.30;99.90
32322;DHT22;61553;48.994;8.940;2024-02-04T01:03:40;8.30;99.90
32322;DHT22;61553;48.994;8.940;2024-02-04T01:06:06;8.30;99.90
32322;DHT22;61553;48.994;8.940;2024-02-04T01:08:32;8.20;99.90
32322;DHT22;61553;48.994;8.940;2024-02-04T01:11:00;8.20;99.90
32322;DHT22;61553;48.994;8.940;2024-02-04T01:13:27;8.20;99.90
32322;DHT22;61553;48.994;8.940;2024-02-04T01:15:53;8.30;99.90
32322;DHT22;61553;48.994;8.940;2024-02-04T01:18:18;8.20;99.90
32322;DHT22;61553;48.994;8.940;2024-02-04T01:20:44;8.20;99.90
32322;DHT22;61553;48.994;8.940;2024-02-04T01:23:09;8.20;99.90
32322;DHT22;61553;48.994;8.940;2024-02-04T01:25:35;8.20;99.90
32322;DHT22;61553;48.994;8.940;2024-02-04T01:28:01;8.20;99.90
32322;DHT22;61553;48.994;8.940;2024-02-04T01:30:26;8.20;99.90
32322;DHT22;61553;48.994;8.940;2024-02-04T01:32:53;8.20;99.90
32322;DHT22;61553;48.994;8.940;2024-02-04T01:35:19;8.30;99.90
32322;DHT22;61553;48.994;8.940;2024-02-04T01:37:45;8.30;99.90
32322;DHT22;61553;48.994;8.940;2024-02-04T01:40:14;8.20;99.90
32322;DHT22;61553;48.994;8.940;2024-02-04T01:42:40;8.20;99.90
32322;DHT22;61553;48.994;8.940;2024-02-04T01:45:05;8.20;99.90
32322;DHT22;61553;48.994;8.940;2024-02-04T01:47:31;8.20;99.90
32322;DHT22;61553;48.994;8.940;2024-02-04T01:49:57;8.20;99.90
32322;DHT22;61553;48.994;8.940;2024-02-04T01:52:23;8.30;99.90
32322;DHT22;61553;48.994;8.940;2024-02-04T01:54:49;8.30;99.90
32322;DHT22;61553;48.994;8.940;2024-02-04T01:57:16;8.30;99.90
32322;DHT22;61553;48.994;8.940;2024-02-04T01:59:42;8.30;99.90
32322;DHT22;61553;48.994;8.940;2024-02-04T02:02:09;8.30;99.90
32322;DHT22;61553;48.994;8.940;2024-02-04T02:04:35;8.30;99.90
32322;DHT22;61553;48.994;8.940;2024-02-04T02:07:02;8.20;99.90
32322;DHT22;61553;48.994;8.940;2024-02-04T02:09:28;8.30;99.90
32322;DHT22;61553;48.994;8.940;2024-02-04T02:12:06;8.30;99.90
32322;DHT22;61553;48.994;8.940;2024-02-04T02:14:39;8.30;99.90
32322;DHT22;61553;48.994;8.940;2024-02-04T02:17:10;8.20;99.90
32322;DHT22;61553;48.994;8.940;2024-02-04T02:19:53;8.20;99.90
32322;DHT22;61553;48.994;8.940;2024-02-04T02:22:28;8.20;99.90
32322;DHT22;61553;48.994;8.940;2024-02-04T02:24:56;8.20;99.90
32322;DHT22;61553;48.994;8.940;2024-02-04T02:27:22;8.20;99.90
32322;DHT22;61553;48.994;8.940;2024-02-04T02:29:48;8.20;99.90
32322;DHT22;61553;48.994;8.940;2024-02-04T02:32:14;8.20;99.90
32322;DHT22;61553;48.994;8.940;2024-02-04T02:34:40;8.20;99.90
32322;DHT22;61553;48.994;8.940;2024-02-04T02:37:29;8.30;99.90
32322;DHT22;61553;48.994;8.940;2024-02-04T02:40:23;8.30;99.90
32322;DHT22;61553;48.994;8.940;2024-02-04T02:42:52;8.20;99.90
32322;DHT22;61553;48.994;8.940;2024-02-04T02:45:21;8.20;99.90
32322;DHT22;61553;48.994;8.940;2024-02-04T02:47:51;8.20;99.90
32322;DHT22;61553;48.994;8.940;2024-02-04T02:50:18;8.20;99.90
32322;DHT22;61553;48.994;8.940;2024-02-04T02:52:43;8.30;99.90
32322;DHT22;61553;48.994;8.940;2024-02-04T02:55:09;8.30;99.90
32322;DHT22;61553;48.994;8.940;2024-02-04T02:57:35;8.30;99.90
32322;DHT22;61553;48.994;8.940;2024-02-04T03:00:01;8.30;99.90
32322;DHT22;61553;48.994;8.940;2024-02-04T03:02:26;8.30;99.90
32322;DHT22;61553;48.994;8.940;2024-02-04T03:04:52;8.30;99.90
32322;DHT22;61553;48.994;8.940;2024-02-04T03:07:17;8.30;99.90
32322;DHT22;61553;48.994;8.940;2024-02-04T03:09:43;8.30;99.90
32322;DHT22;61553;48.994;8.940;2024-02-04T03:12:09;8.30;99.90
32322;DHT22;61553;48.994;8.940;2024-02-04T03:14:35;8.30;99.90
32322;DHT22;61553;48.994;8.940;2024-02-04T03:17:00;8.30;99.90
32322;DHT22;61553;48.994;8.940;2024-02-04T03:19:26;8.30;99.90
32322;DHT22;61553;48.994;8.940;2024-02-04T03:21:52;8.30;99.90
32322;DHT22;61553;48.994;8.940;2024-02-04T03:24:17;8.30;99.90
32322;DHT22;61553;48.994;8.940;2024-02-04T03:26:43;8.30;99.90
32322;DHT22;61553;48.994;8.940;2024-02-04T03:29:08;8.40;99.90
32322;DHT22;61553;48.994;8.940;2024-02-04T03:31:34;8.40;99.90
32322;DHT22;61553;48.994;8.940;2024-02-04T03:34:00;8.30;99.90
32322;DHT22;61553;48.994;8.940;2024-02-04T03:36:25;8.30;99.90
32322;DHT22;61553;48.994;8.940;2024-02-04T03:38:51;8.40;99.90
32322;DHT22;61553;48.994;8.940;2024-02-04T03:41:17;8.30;99.90
32322;DHT22;61553;48.994;8.940;2024-02-04T03:43:43;8.30;99.90
32322;DHT22;61553;48.994;8.940;2024-02-04T03:46:12;8.40;99.90
32322;DHT22;61553;48.994;8.940;2024-02-04T03:48:37;8.40;99.90
32322;DHT22;61553;48.994;8.940;2024-02-04T03:51:03;8.30;99.90
32322;DHT22;61553;48.994;8.940;2024-02-04T03:53:29;8.30;99.90
32322;DHT22;61553;48.994;8.940;2024-02-04T03:55:54;8.30;99.90
32322;DHT22;61553;48.994;8.940;2024-02-04T03:58:20;8.30;99.90
32322;DHT22;61553;48.994;8.940;2024-02-04T04:00:57;8.30;99.90
32322;DHT22;61553;48.994;8.940;2024-02-04T04:03:24;8.30;99.90
32322;DHT22;61553;48.994;8.940;2024-02-04T04:05:50;8.30;99.90
32322;DHT22;61553;48.994;8.940;2024-02-04T04:08:16;8.30;99.90
32322;DHT22;61553;48.994;8.940;2024-02-04T04:10:43;8.30;99.90
32322;DHT22;61553;48.994;8.940;2024-02-04T04:13:08;8.30;99.90
32322;DHT22;61553;48.994;8.940;2024-02-04T04:15:34;8.30;99.90
32322;DHT22;61553;48.994;8.940;2024-02-04T04:18:00;8.30;99.90
32322;DHT22;61553;48.994;8.940;2024-02-04T04:20:25;8.30;99.90
32322;DHT22;61553;48.994;8.940;2024-02-04T04:22:51;8.30;99.90
32322;DHT22;61553;48.994;8.940;2024-02-04T04:25:17;8.30;99.90
32322;DHT22;61553;48.994;8.940;2024-02-04T04:27:43;8.40;99.90
32322;DHT22;61553;48.994;8.940;2024-02-04T04:30:09;8.40;99.90
32322;DHT22;61553;48.994;8.940;2024-02-04T04:32:35;8.40;99.90
32322;DHT22;61553;48.994;8.940;2024-02-04T04:35:01;8.40;99.90
32322;DHT22;61553;48.994;8.940;2024-02-04T04:37:27;8.50;99.90
32322;DHT22;61553;48.994;8.940;2024-02-04T04:39:52;8.50;99.90
32322;DHT22;61553;48.994;8.940;2024-02-04T04:42:18;8.50;99.90
32322;DHT22;61553;48.994;8.940;2024-02-04T04:44:43;8.50;99.90
32322;DHT22;61553;48.994;8.940;2024-02-04T04:47:09;8.50;99.90
32322;DHT22;61553;48.994;8.940;2024-02-04T04:49:35;8.50;99.90
32322;DHT22;61553;48.994;8.940;2024-02-04T04:52:01;8.50;99.90
32322;DHT22;61553;48.994;8.940;2024-02-04T04:54:27;8.50;99.90
32322;DHT22;61553;48.994;8.940;2024-02-04T04:56:53;8.50;99.90
32322;DHT22;61553;48.994;8.940;2024-02-04T04:59:19;8.50;99.90
32322;DHT22;61553;48.994;8.940;2024-02-04T05:01:46;8.50;99.90
32322;DHT22;61553;48.994;8.940;2024-02-04T05:04:24;8.50;99.90
32322;DHT22;61553;48.994;8.940;2024-02-04T05:06:51;8.60;99.90
32322;DHT22;61553;48.994;8.940;2024-02-04T05:09:16;8.50;99.90
32322;DHT22;61553;48.994;8.940;2024-02-04T05:11:42;8.50;99.90
32322;DHT22;61553;48.994;8.940;2024-02-04T05:14:08;8.60;99.90
32322;DHT22;61553;48.994;8.940;2024-02-04T05:16:35;8.60;99.90
32322;DHT22;61553;48.994;8.940;2024-02-04T05:19:02;8.60;99.90
32322;DHT22;61553;48.994;8.940;2024-02-04T05:21:28;8.60;99.90
32322;DHT22;61553;48.994;8.940;2024-02-04T05:23:53;8.60;99.90
32322;DHT22;61553;48.994;8.940;2024-02-04T05:26:19;8.70;99.90
32322;DHT22;61553;48.994;8.940;2024-02-04T05:28:45;8.70;99.90
32322;DHT22;61553;48.994;8.940;2024-02-04T05:31:10;8.70;99.90
32322;DHT22;61553;48.994;8.940;2024-02-04T05:33:36;8.70;99.90
32322;DHT22;61553;48.994;8.940;2024-02-04T05:36:02;8.70;99.90
32322;DHT22;61553;48.994;8.940;2024-02-04T05:38:28;8.70;99.90
32322;DHT22;61553;48.994;8.940;2024-02-04T05:40:54;8.70;99.90
32322;DHT22;61553;48.994;8.940;2024-02-04T05:43:19;8.70;99.90
32322;DHT22;61553;48.994;8.940;2024-02-04T05:45:45;8.80;99.90
32322;DHT22;61553;48.994;8.940;2024-02-04T05:48:11;8.70;99.90
32322;DHT22;61553;48.994;8.940;2024-02-04T05:50:36;8.80;99.90
32322;DHT22;61553;48.994;8.940;2024-02-04T05:53:03;8.70;99.90
32322;DHT22;61553;48.994;8.940;2024-02-04T05:55:29;8.70;99.90
32322;DHT22;61553;48.994;8.940;2024-02-04T05:57:55;8.70;99.90
32322;DHT22;61553;48.994;8.940;2024-02-04T06:00:20;8.70;99.90
32322;DHT22;61553;48.994;8.940;2024-02-04T06:02:46;8.80;99.90
32322;DHT22;61553;48.994;8.940;2024-02-04T06:05:12;8.70;99.90
32322;DHT22;61553;48.994;8.940;2024-02-04T06:07:38;8.80;99.90
32322;DHT22;61553;48.994;8.940;2024-02-04T06:10:04;8.70;99.90
32322;DHT22;61553;48.994;8.940;2024-02-04T06:12:30;8.70;99.90
32322;DHT22;61553;48.994;8.940;2024-02-04T06:14:56;8.70;99.90
32322;DHT22;61553;48.994;8.940;2024-02-04T06:17:21;8.70;99.90
32322;DHT22;61553;48.994;8.940;2024-02-04T06:19:51;8.80;99.90
32322;DHT22;61553;48.994;8.940;2024-02-04T06:22:17;8.80;99.90
32322;DHT22;61553;48.994;8.940;2024-02-04T06:24:42;8.80;99.90
32322;DHT22;61553;48.994;8.940;2024-02-04T06:27:08;8.80;99.90
32322;DHT22;61553;48.994;8.940;2024-02-04T06:29:34;8.80;99.90
32322;DHT22;61553;48.994;8.940;2024-02-04T06:31:59;8.80;99.90
32322;DHT22;61553;48.994;8.940;2024-02-04T06:34:25;8.80;99.90
32322;DHT22;61553;48.994;8.940;2024-02-04T06:36:51;8.80;99.90
32322;DHT22;61553;48.994;8.940;2024-02-04T06:39:16;8.70;99.90
32322;DHT22;61553;48.994;8.940;2024-02-04T06:41:42;8.80;99.90
32322;DHT22;61553;48.994;8.940;2024-02-04T06:44:08;8.80;99.90
32322;DHT22;61553;48.994;8.940;2024-02-04T06:46:33;8.80;99.90
32322;DHT22;61553;48.994;8.940;2024-02-04T06:48:59;8.70;99.90
32322;DHT22;61553;48.994;8.940;2024-02-04T06:51:25;8.70;99.90
32322;DHT22;61553;48.994;8.940;2024-02-04T06:53:50;8.70;99.90
32322;DHT22;61553;48.994;8.940;2024-02-04T06:56:16;8.70;99.90
32322;DHT22;61553;48.994;8.940;2024-02-04T06:58:42;8.70;99.90
32322;DHT22;61553;48.994;8.940;2024-02-04T07:01:08;8.70;99.90
32322;DHT22;61553;48.994;8.940;2024-02-04T07:03:34;8.70;99.90
32322;DHT22;61553;48.994;8.940;2024-02-04T07:06:00;8.70;99.90
32322;DHT22;61553;48.994;8.940;2024-02-04T07:08:26;8.80;99.90
32322;DHT22;61553;48.994;8.940;2024-02-04T07:10:52;8.80;99.90
32322;DHT22;61553;48.994;8.940;2024-02-04T07:13:18;8.70;99.90
32322;DHT22;61553;48.994;8.940;2024-02-04T07:15:44;8.80;99.90
32322;DHT22;61553;48.994;8.940;2024-02-04T07:18:10;8.80;99.90
32322;DHT22;61553;48.994;8.940;2024-02-04T07:20:36;8.80;99.90
32322;DHT22;61553;48.994;8.940;2024-02-04T07:23:01;8.80;99.90
32322;DHT22;61553;48.994;8.940;2024-02-04T07:25:27;8.80;99.90
32322;DHT22;61553;48.994;8.940;2024-02-04T07:27:53;8.90;99.90
32322;DHT22;61553;48.994;8.940;2024-02-04T07:30:20;8.90;99.90
32322;DHT22;61553;48.994;8.940;2024-02-04T07:32:46;8.90;99.90
32322;DHT22;61553;48.994;8.940;2024-02-04T07:35:12;9.00;99.90
32322;DHT22;61553;48.994;8.940;2024-02-04T07:37:37;9.00;99.90
32322;DHT22;61553;48.994;8.940;2024-02-04T07:40:04;9.00;99.90
32322;DHT22;61553;48.994;8.940;2024-02-04T07:42:31;9.10;99.90
32322;DHT22;61553;48.994;8.940;2024-02-04T07:44:57;9.10;99.90
32322;DHT22;61553;48.994;8.940;2024-02-04T07:47:23;9.10;99.90
32322;DHT22;61553;48.994;8.940;2024-02-04T07:49:49;9.10;99.90
32322;DHT22;61553;48.994;8.940;2024-02-04T07:52:15;9.10;99.90
32322;DHT22;61553;48.994;8.940;2024-02-04T07:54:41;9.10;99.90
32322;DHT22;61553;48.994;8.940;2024-02-04T07:57:06;9.10;99.90
32322;DHT22;61553;48.994;8.940;2024-02-04T07:59:32;9.10;99.90
32322;DHT22;61553;48.994;8.940;2024-02-04T08:01:58;9.20;99.90
32322;DHT22;61553;48.994;8.940;2024-02-04T08:04:23;9.10;99.90
32322;DHT22;61553;48.994;8.940;2024-02-04T08:06:49;9.20;99.90
32322;DHT22;61553;48.994;8.940;2024-02-04T08:09:15;9.10;99.90
32322;DHT22;61553;48.994;8.940;2024-02-04T08:11:40;9.10;99.90
32322;DHT22;61553;48.994;8.940;2024-02-04T08:14:06;9.10;99.90
32322;DHT22;61553;48.994;8.940;2024-02-04T08:16:32;9.10;99.90
32322;DHT22;61553;48.994;8.940;2024-02-04T08:18:58;9.10;99.90
32322;DHT22;61553;48.994;8.940;2024-02-04T08:21:24;9.10;99.90
32322;DHT22;61553;48.994;8.940;2024-02-04T08:23:49;9.20;99.90
32322;DHT22;61553;48.994;8.940;2024-02-04T08:26:15;9.30;99.90
32322;DHT22;61553;48.994;8.940;2024-02-04T08:28:41;9.30;99.90
32322;DHT22;61553;48.994;8.940;2024-02-04T08:31:06;9.30;99.90
32322;DHT22;61553;48.994;8.940;2024-02-04T08:33:32;9.30;99.90
32322;DHT22;61553;48.994;8.940;2024-02-04T08:35:58;9.30;99.90
32322;DHT22;61553;48.994;8.940;2024-02-04T08:38:23;9.30;99.90
32322;DHT22;61553;48.994;8.940;2024-02-04T08:40:49;9.40;99.90
32322;DHT22;61553;48.994;8.940;2024-02-04T08:43:15;9.40;99.90
32322;DHT22;61553;48.994;8.940;2024-02-04T08:45:41;9.60;99.90
32322;DHT22;61553;48.994;8.940;2024-02-04T08:48:07;9.60;99.90
32322;DHT22;61553;48.994;8.940;2024-02-04T08:50:32;9.60;99.90
32322;DHT22;61553;48.994;8.940;2024-02-04T08:52:58;9.60;99.90
32322;DHT22;61553;48.994;8.940;2024-02-04T08:55:24;9.50;99.90
32322;DHT22;61553;48.994;8.940;2024-02-04T08:57:49;9.60;99.90
32322;DHT22;61553;48.994;8.940;2024-02-04T09:00:16;9.60;99.90
32322;DHT22;61553;48.994;8.940;2024-02-04T09:02:42;9.70;99.90
32322;DHT22;61553;48.994;8.940;2024-02-04T09:05:08;9.70;99.90
32322;DHT22;61553;48.994;8.940;2024-02-04T09:07:34;9.80;99.90
32322;DHT22;61553;48.994;8.940;2024-02-04T09:09:59;9.70;99.90
32322;DHT22;61553;48.994;8.940;2024-02-04T09:12:25;9.70;99.90
32322;DHT22;61553;48.994;8.940;2024-02-04T09:14:50;9.80;99.90
32322;DHT22;61553;48.994;8.940;2024-02-04T09:17:16;9.80;99.90
32322;DHT22;61553;48.994;8.940;2024-02-04T09:19:42;9.90;99.90
32322;DHT22;61553;48.994;8.940;2024-02-04T09:22:08;9.90;99.90
32322;DHT22;61553;48.994;8.940;2024-02-04T09:24:33;10.00;99.90
32322;DHT22;61553;48.994;8.940;2024-02-04T09:26:59;10.00;99.90
32322;DHT22;61553;48.994;8.940;2024-02-04T09:29:25;10.20;99.90
32322;DHT22;61553;48.994;8.940;2024-02-04T09:31:51;10.30;99.90
32322;DHT22;61553;48.994;8.940;2024-02-04T09:34:17;10.40;99.90
32322;DHT22;61553;48.994;8.940;2024-02-04T09:36:43;10.70;99.90
32322;DHT22;61553;48.994;8.940;2024-02-04T09:39:09;10.80;99.90
32322;DHT22;61553;48.994;8.940;2024-02-04T09:41:35;10.80;99.90
32322;DHT22;61553;48.994;8.940;2024-02-04T09:44:02;10.80;99.90
32322;DHT22;61553;48.994;8.940;2024-02-04T09:46:29;10.80;99.90
32322;DHT22;61553;48.994;8.940;2024-02-04T09:48:55;10.70;99.90
32322;DHT22;61553;48.994;8.940;2024-02-04T09:51:21;10.50;99.90
32322;DHT22;61553;48.994;8.940;2024-02-04T09:53:51;10.50;99.90
32322;DHT22;61553;48.994;8.940;2024-02-04T09:56:18;10.60;99.90
32322;DHT22;61553;48.994;8.940;2024-02-04T09:58:44;10.70;99.90
32322;DHT22;61553;48.994;8.940;2024-02-04T10:01:10;10.80;99.90
32322;DHT22;61553;48.994;8.940;2024-02-04T10:03:37;10.90;99.90
32322;DHT22;61553;48.994;8.940;2024-02-04T10:06:03;11.00;99.90
32322;DHT22;61553;48.994;8.940;2024-02-04T10:08:28;11.00;99.90
32322;DHT22;61553;48.994;8.940;2024-02-04T10:10:54;11.00;99.90
32322;DHT22;61553;48.994;8.940;2024-02-04T10:13:20;11.00;99.90
32322;DHT22;61553;48.994;8.940;2024-02-04T10:15:51;10.90;99.90
32322;DHT22;61553;48.994;8.940;2024-02-04T10:18:17;10.80;99.90
32322;DHT22;61553;48.994;8.940;2024-02-04T10:20:43;10.80;99.90
32322;DHT22;61553;48.994;8.940;2024-02-04T10:23:09;10.70;99.90
32322;DHT22;61553;48.994;8.940;2024-02-04T10:25:34;10.80;99.90
32322;DHT22;61553;48.994;8.940;2024-02-04T10:28:00;10.90;99.90
32322;DHT22;61553;48.994;8.940;2024-02-04T10:30:26;11.10;99.90
32322;DHT22;61553;48.994;8.940;2024-02-04T10:32:53;11.00;99.90
32322;DHT22;61553;48.994;8.940;2024-02-04T10:35:22;10.90;99.90
32322;DHT22;61553;48.994;8.940;2024-02-04T10:37:51;10.90;99.90
32322;DHT22;61553;48.994;8.940;2024-02-04T10:40:17;11.10;99.90
32322;DHT22;61553;48.994;8.940;2024-02-04T10:42:44;11.00;99.90
32322;DHT22;61553;48.994;8.940;2024-02-04T10:45:10;11.10;99.90
32322;DHT22;61553;48.994;8.940;2024-02-04T10:47:40;11.30;99.90
32322;DHT22;61553;48.994;8.940;2024-02-04T10:50:07;11.30;99.90
32322;DHT22;61553;48.994;8.940;2024-02-04T10:52:37;11.30;99.90
32322;DHT22;61553;48.994;8.940;2024-02-04T10:55:11;11.30;99.90
32322;DHT22;61553;48.994;8.940;2024-02-04T10:57:38;11.20;99.90
32322;DHT22;61553;48.994;8.940;2024-02-04T11:00:05;11.20;99.90
32322;DHT22;61553;48.994;8.940;2024-02-04T11:02:35;11.30;99.90
32322;DHT22;61553;48.994;8.940;2024-02-04T11:05:04;11.30;99.90
32322;DHT22;61553;48.994;8.940;2024-02-04T11:07:32;11.20;99.90
32322;DHT22;61553;48.994;8.940;2024-02-04T11:09:58;11.00;99.90
32322;DHT22;61553;48.994;8.940;2024-02-04T11:12:24;10.90;99.90
32322;DHT22;61553;48.994;8.940;2024-02-04T11:14:54;10.80;99.90
32322;DHT22;61553;48.994;8.940;2024-02-04T11:25:58;10.40;99.90
32322;DHT22;61553;48.994;8.940;2024-02-04T11:28:25;10.40;99.90
32322;DHT22;61553;48.994;8.940;2024-02-04T11:30:51;10.50;99.90
32322;DHT22;61553;48.994;8.940;2024-02-04T11:33:19;10.70;99.90
32322;DHT22;61553;48.994;8.940;2024-02-04T11:35:46;10.90;99.90
32322;DHT22;61553;48.994;8.940;2024-02-04T11:38:12;11.10;99.90
32322;DHT22;61553;48.994;8.940;2024-02-04T11:40:42;11.40;99.90
32322;DHT22;61553;48.994;8.940;2024-02-04T11:43:11;11.60;99.90
32322;DHT22;61553;48.994;8.940;2024-02-04T11:45:40;12.00;99.90
32322;DHT22;61553;48.994;8.940;2024-02-04T11:48:10;12.40;99.90
32322;DHT22;61553;48.994;8.940;2024-02-04T11:50:37;12.80;99.90
32322;DHT22;61553;48.994;8.940;2024-02-04T11:53:10;12.80;99.90
32322;DHT22;61553;48.994;8.940;2024-02-04T11:55:39;12.80;99.90
32322;DHT22;61553;48.994;8.940;2024-02-04T11:58:05;12.60;99.90
32322;DHT22;61553;48.994;8.940;2024-02-04T12:00:35;12.50;99.90
32322;DHT22;61553;48.994;8.940;2024-02-04T12:03:06;12.40;99.90
32322;DHT22;61553;48.994;8.940;2024-02-04T12:05:32;12.30;99.90
32322;DHT22;61553;48.994;8.940;2024-02-04T12:08:02;12.20;99.90
32322;DHT22;61553;48.994;8.940;2024-02-04T12:10:30;12.00;99.90
32322;DHT22;61553;48.994;8.940;2024-02-04T12:13:00;11.90;99.90
32322;DHT22;61553;48.994;8.940;2024-02-04T12:15:28;11.90;99.90
32322;DHT22;61553;48.994;8.940;2024-02-04T12:17:54;11.80;99.90
32322;DHT22;61553;48.994;8.940;2024-02-04T12:20:19;11.90;99.90
32322;DHT22;61553;48.994;8.940;2024-02-04T12:22:45;11.70;99.90
32322;DHT22;61553;48.994;8.940;2024-02-04T12:25:11;11.60;99.90
32322;DHT22;61553;48.994;8.940;2024-02-04T12:27:37;11.60;99.90
32322;DHT22;61553;48.994;8.940;2024-02-04T12:30:03;11.50;99.90
32322;DHT22;61553;48.994;8.940;2024-02-04T12:32:30;11.50;99.90
32322;DHT22;61553;48.994;8.940;2024-02-04T12:34:56;11.40;99.90
32322;DHT22;61553;48.994;8.940;2024-02-04T12:37:22;11.20;99.90
32322;DHT22;61553;48.994;8.940;2024-02-04T12:39:47;11.10;99.90
32322;DHT22;61553;48.994;8.940;2024-02-04T12:42:17;11.20;99.90
32322;DHT22;61553;48.994;8.940;2024-02-04T12:44:47;11.20;99.90
32322;DHT22;61553;48.994;8.940;2024-02-04T12:47:13;11.30;99.90
32322;DHT22;61553;48.994;8.940;2024-02-04T12:49:40;11.30;99.90
32322;DHT22;61553;48.994;8.940;2024-02-04T12:52:07;11.30;99.90
32322;DHT22;61553;48.994;8.940;2024-02-04T12:54:45;11.30;99.90
32322;DHT22;61553;48.994;8.940;2024-02-04T12:57:21;11.10;99.90
32322;DHT22;61553;48.994;8.940;2024-02-04T12:59:47;11.30;99.90
32322;DHT22;61553;48.994;8.940;2024-02-04T13:02:14;11.30;99.90
32322;DHT22;61553;48.994;8.940;2024-02-04T13:04:41;11.30;99.90
32322;DHT22;61553;48.994;8.940;2024-02-04T13:07:11;11.30;99.90
32322;DHT22;61553;48.994;8.940;2024-02-04T13:09:44;11.20;99.90
32322;DHT22;61553;48.994;8.940;2024-02-04T13:12:14;11.10;99.90
32322;DHT22;61553;48.994;8.940;2024-02-04T13:14:41;10.90;99.90
32322;DHT22;61553;48.994;8.940;2024-02-04T13:17:07;10.70;99.90
32322;DHT22;61553;48.994;8.940;2024-02-04T13:19:37;10.60;99.90
32322;DHT22;61553;48.994;8.940;2024-02-04T13:22:06;10.50;99.90
32322;DHT22;61553;48.994;8.940;2024-02-04T13:24:35;10.30;99.90
32322;DHT22;61553;48.994;8.940;2024-02-04T13:27:01;10.30;99.90
32322;DHT22;61553;48.994;8.940;2024-02-04T13:29:28;10.20;99.90
32322;DHT22;61553;48.994;8.940;2024-02-04T13:31:54;10.20;99.90
32322;DHT22;61553;48.994;8.940;2024-02-04T13:34:21;10.20;99.90
32322;DHT22;61553;48.994;8.940;2024-02-04T13:36:46;10.20;99.90
32322;DHT22;61553;48.994;8.940;2024-02-04T13:39:12;10.10;99.90
32322;DHT22;61553;48.994;8.940;2024-02-04T13:41:40;10.10;99.90
32322;DHT22;61553;48.994;8.940;2024-02-04T13:44:06;10.10;99.90
32322;DHT22;61553;48.994;8.940;2024-02-04T13:46:32;10.10;99.90
32322;DHT22;61553;48.994;8.940;2024-02-04T13:48:58;10.10;99.90
32322;DHT22;61553;48.994;8.940;2024-02-04T13:51:24;10.00;99.90
32322;DHT22;61553;48.994;8.940;2024-02-04T13:53:49;10.00;99.90
32322;DHT22;61553;48.994;8.940;2024-02-04T13:56:15;10.10;99.90
32322;DHT22;61553;48.994;8.940;2024-02-04T13:58:44;10.10;99.90
32322;DHT22;61553;48.994;8.940;2024-02-04T14:01:10;10.20;99.90
32322;DHT22;61553;48.994;8.940;2024-02-04T14:03:36;10.20;99.90
32322;DHT22;61553;48.994;8.940;2024-02-04T14:06:01;10.20;99.90
32322;DHT22;61553;48.994;8.940;2024-02-04T14:08:29;10.20;99.90
32322;DHT22;61553;48.994;8.940;2024-02-04T14:10:55;10.10;99.90
32322;DHT22;61553;48.994;8.940;2024-02-04T14:13:21;10.20;99.90
32322;DHT22;61553;48.994;8.940;2024-02-04T14:15:46;10.10;99.90
32322;DHT22;61553;48.994;8.940;2024-02-04T14:18:12;10.00;99.90
32322;DHT22;61553;48.994;8.940;2024-02-04T14:20:38;10.00;99.90
32322;DHT22;61553;48.994;8.940;2024-02-04T14:23:04;10.00;99.90
32322;DHT22;61553;48.994;8.940;2024-02-04T14:25:29;9.90;99.90
32322;DHT22;61553;48.994;8.940;2024-02-04T14:27:55;9.80;99.90
32322;DHT22;61553;48.994;8.940;2024-02-04T14:30:21;9.70;99.90
32322;DHT22;61553;48.994;8.940;2024-02-04T14:32:46;9.80;99.90
32322;DHT22;61553;48.994;8.940;2024-02-04T14:35:12;9.70;99.90
32322;DHT22;61553;48.994;8.940;2024-02-04T14:37:38;9.70;99.90
32322;DHT22;61553;48.994;8.940;2024-02-04T14:40:06;9.70;99.90
32322;DHT22;61553;48.994;8.940;2024-02-04T14:42:32;9.70;99.90
32322;DHT22;61553;48.994;8.940;2024-02-04T14:44:58;9.70;99.90
32322;DHT22;61553;48.994;8.940;2024-02-04T14:47:26;9.60;99.90
32322;DHT22;61553;48.994;8.940;2024-02-04T14:49:53;9.60;99.90
32322;DHT22;61553;48.994;8.940;2024-02-04T14:52:18;9.60;99.90
32322;DHT22;61553;48.994;8.940;2024-02-04T14:54:44;9.60;99.90
32322;DHT22;61553;48.994;8.940;2024-02-04T14:57:10;9.50;99.90
32322;DHT22;61553;48.994;8.940;2024-02-04T14:59:35;9.60;99.90
32322;DHT22;61553;48.994;8.940;2024-02-04T15:02:03;9.50;99.90
32322;DHT22;61553;48.994;8.940;2024-02-04T15:04:33;9.60;99.90
32322;DHT22;61553;48.994;8.940;2024-02-04T15:06:59;9.60;99.90
32322;DHT22;61553;48.994;8.940;2024-02-04T15:09:25;9.50;99.90
32322;DHT22;61553;48.994;8.940;2024-02-04T15:11:51;9.50;99.90
32322;DHT22;61553;48.994;8.940;2024-02-04T15:14:17;9.50;99.90
32322;DHT22;61553;48.994;8.940;2024-02-04T15:16:43;9.60;99.90
32322;DHT22;61553;48.994;8.940;2024-02-04T15:19:09;9.60;99.90
32322;DHT22;61553;48.994;8.940;2024-02-04T15:21:35;9.50;99.90
32322;DHT22;61553;48.994;8.940;2024-02-04T15:24:01;9.40;99.90
32322;DHT22;61553;48.994;8.940;2024-02-04T15:26:33;9.40;99.90
32322;DHT22;61553;48.994;8.940;2024-02-04T15:29:02;9.40;99.90
32322;DHT22;61553;48.994;8.940;2024-02-04T15:31:30;9.40;99.90
32322;DHT22;61553;48.994;8.940;2024-02-04T15:33:56;9.40;99.90
32322;DHT22;61553;48.994;8.940;2024-02-04T15:36:22;9.30;99.90
32322;DHT22;61553;48.994;8.940;2024-02-04T15:38:50;9.30;99.90
32322;DHT22;61553;48.994;8.940;2024-02-04T15:41:16;9.40;99.90
32322;DHT22;61553;48.994;8.940;2024-02-04T15:43:41;9.40;99.90
32322;DHT22;61553;48.994;8.940;2024-02-04T15:46:08;9.40;99.90